Terminal Aerodrome Forecast
Issued by NWS Bismarck, ND

Home | Current Version | Previous Version | Text Only | Print | Product List | Glossary Off
Versions: 1 2 3 4 5 6 7 8 9 10 11 12 13 14 15 16 17 18 19 20 21 22 23

000
FTUS43 KBIS 070200 AAA
TAFBIS
TAF AMD
KBIS 070239Z 0703/0724 32008KT P6SM SCT080
      TEMPO 0703/0705 1SM +TSRA OVC020CB
     FM070600 VRB05KT P6SM VCTS BKN080CB
     FM071200 32012KT P6SM SCT050
     FM071800 33018G28KT P6SM BKN050=

USA.gov is the U.S. government's official web portal to all federal, state and local government web resources and services.